Terminal Aerodrome Forecast
Issued by NWS Charleston, WV

Home | Current Version | Previous Version | Text Only | Print | Product List | Glossary On
Versions: 1 2 3 4 5 6 7 8 9 10 11 12 13 14 15 16 17 18 19 20 21 22 23 24 25 26 27 28 29
655
FTUS41 KRLX 261739
TAFEKN
TAF
KEKN 261739Z 2618/2718 31007KT P6SM VCSH BKN040 BKN080
     FM261900 27005KT P6SM VCTS BKN040CB BKN080
     FM270100 21003KT 5SM BR BKN060
     FM270600 23003KT 1SM BR OVC045
     FM270700 23003KT 1/4SM FG BKN035
     FM271300 22004KT 3SM BR OVC026
     FM271400 23004KT P6SM OVC035
     FM271700 27005KT 3SM -SHRA OVC040=

USA.gov is the U.S. government's official web portal to all federal, state and local government web resources and services.